sensor_id;sensor_type;location;lat;lon;timestamp;P1;durP1;ratioP1;P2;durP2;ratioP2
33190;SDS011;19554;42.652;23.364;2023-04-15T00:01:01;7.90;;;3.03;;
33190;SDS011;19554;42.652;23.364;2023-04-15T00:03:26;3.90;;;2.92;;
33190;SDS011;19554;42.652;23.364;2023-04-15T00:05:53;5.38;;;3.10;;
33190;SDS011;19554;42.652;23.364;2023-04-15T00:08:18;7.32;;;3.22;;
33190;SDS011;19554;42.652;23.364;2023-04-15T00:10:44;9.45;;;3.70;;
33190;SDS011;19554;42.652;23.364;2023-04-15T00:13:10;7.55;;;3.45;;
33190;SDS011;19554;42.652;23.364;2023-04-15T00:15:36;8.02;;;3.22;;
33190;SDS011;19554;42.652;23.364;2023-04-15T00:18:02;8.88;;;3.83;;
33190;SDS011;19554;42.652;23.364;2023-04-15T00:20:28;8.60;;;4.05;;
33190;SDS011;19554;42.652;23.364;2023-04-15T00:22:53;4.63;;;3.38;;
33190;SDS011;19554;42.652;23.364;2023-04-15T00:25:19;6.97;;;3.88;;
33190;SDS011;19554;42.652;23.364;2023-04-15T00:27:44;7.28;;;3.95;;
33190;SDS011;19554;42.652;23.364;2023-04-15T00:30:10;8.23;;;3.70;;
33190;SDS011;19554;42.652;23.364;2023-04-15T00:32:35;8.70;;;3.70;;
33190;SDS011;19554;42.652;23.364;2023-04-15T00:35:01;6.60;;;3.83;;
33190;SDS011;19554;42.652;23.364;2023-04-15T00:37:27;8.02;;;3.70;;
33190;SDS011;19554;42.652;23.364;2023-04-15T00:39:53;6.25;;;3.40;;
33190;SDS011;19554;42.652;23.364;2023-04-15T00:42:18;7.13;;;3.90;;
33190;SDS011;19554;42.652;23.364;2023-04-15T00:44:45;8.65;;;4.00;;
33190;SDS011;19554;42.652;23.364;2023-04-15T00:47:11;7.15;;;4.10;;
33190;SDS011;19554;42.652;23.364;2023-04-15T00:49:36;11.25;;;4.22;;
33190;SDS011;19554;42.652;23.364;2023-04-15T00:52:02;10.57;;;3.97;;
33190;SDS011;19554;42.652;23.364;2023-04-15T00:54:28;10.77;;;5.20;;
33190;SDS011;19554;42.652;23.364;2023-04-15T00:56:53;8.90;;;4.78;;
33190;SDS011;19554;42.652;23.364;2023-04-15T00:59:19;9.95;;;4.95;;
33190;SDS011;19554;42.652;23.364;2023-04-15T01:01:45;10.25;;;4.72;;
33190;SDS011;19554;42.652;23.364;2023-04-15T01:04:11;12.40;;;5.53;;
33190;SDS011;19554;42.652;23.364;2023-04-15T01:06:37;10.38;;;4.75;;
33190;SDS011;19554;42.652;23.364;2023-04-15T01:09:02;10.30;;;5.05;;
33190;SDS011;19554;42.652;23.364;2023-04-15T01:11:28;11.48;;;5.68;;
33190;SDS011;19554;42.652;23.364;2023-04-15T01:13:54;7.45;;;5.15;;
33190;SDS011;19554;42.652;23.364;2023-04-15T01:16:21;10.50;;;5.10;;
33190;SDS011;19554;42.652;23.364;2023-04-15T01:18:47;12.20;;;5.28;;
33190;SDS011;19554;42.652;23.364;2023-04-15T01:21:13;8.25;;;5.22;;
33190;SDS011;19554;42.652;23.364;2023-04-15T01:23:38;7.38;;;4.68;;
33190;SDS011;19554;42.652;23.364;2023-04-15T01:26:04;7.88;;;4.20;;
33190;SDS011;19554;42.652;23.364;2023-04-15T01:28:32;8.25;;;4.15;;
33190;SDS011;19554;42.652;23.364;2023-04-15T01:31:12;12.45;;;4.78;;
33190;SDS011;19554;42.652;23.364;2023-04-15T01:33:39;7.05;;;4.18;;
33190;SDS011;19554;42.652;23.364;2023-04-15T01:36:09;6.82;;;3.85;;
33190;SDS011;19554;42.652;23.364;2023-04-15T01:38:35;8.38;;;3.70;;
33190;SDS011;19554;42.652;23.364;2023-04-15T01:41:01;6.97;;;3.70;;
33190;SDS011;19554;42.652;23.364;2023-04-15T01:43:32;9.27;;;4.30;;
33190;SDS011;19554;42.652;23.364;2023-04-15T01:45:58;4.55;;;3.38;;
33190;SDS011;19554;42.652;23.364;2023-04-15T01:48:23;10.70;;;3.90;;
33190;SDS011;19554;42.652;23.364;2023-04-15T01:50:48;6.18;;;3.92;;
33190;SDS011;19554;42.652;23.364;2023-04-15T01:53:14;10.32;;;4.15;;
33190;SDS011;19554;42.652;23.364;2023-04-15T01:55:40;5.43;;;3.92;;
33190;SDS011;19554;42.652;23.364;2023-04-15T01:58:06;7.05;;;4.03;;
33190;SDS011;19554;42.652;23.364;2023-04-15T02:00:31;10.43;;;4.65;;
33190;SDS011;19554;42.652;23.364;2023-04-15T02:02:57;7.13;;;3.75;;
33190;SDS011;19554;42.652;23.364;2023-04-15T02:05:23;7.65;;;3.78;;
33190;SDS011;19554;42.652;23.364;2023-04-15T02:07:49;10.70;;;3.92;;
33190;SDS011;19554;42.652;23.364;2023-04-15T02:10:14;9.13;;;3.72;;
33190;SDS011;19554;42.652;23.364;2023-04-15T02:12:40;10.82;;;4.13;;
33190;SDS011;19554;42.652;23.364;2023-04-15T02:15:06;7.13;;;3.50;;
33190;SDS011;19554;42.652;23.364;2023-04-15T02:17:33;8.65;;;3.45;;
33190;SDS011;19554;42.652;23.364;2023-04-15T02:19:59;9.48;;;3.50;;
33190;SDS011;19554;42.652;23.364;2023-04-15T02:22:25;7.00;;;3.67;;
33190;SDS011;19554;42.652;23.364;2023-04-15T02:24:51;5.53;;;3.47;;
33190;SDS011;19554;42.652;23.364;2023-04-15T02:27:17;9.70;;;3.60;;
33190;SDS011;19554;42.652;23.364;2023-04-15T02:29:45;6.00;;;3.90;;
33190;SDS011;19554;42.652;23.364;2023-04-15T02:32:11;7.38;;;3.40;;
33190;SDS011;19554;42.652;23.364;2023-04-15T02:34:40;11.23;;;3.75;;
33190;SDS011;19554;42.652;23.364;2023-04-15T02:37:07;9.43;;;4.10;;
33190;SDS011;19554;42.652;23.364;2023-04-15T02:39:33;5.70;;;3.60;;
33190;SDS011;19554;42.652;23.364;2023-04-15T02:41:59;8.05;;;4.38;;
33190;SDS011;19554;42.652;23.364;2023-04-15T02:44:25;8.05;;;4.25;;
33190;SDS011;19554;42.652;23.364;2023-04-15T02:46:51;7.78;;;4.85;;
33190;SDS011;19554;42.652;23.364;2023-04-15T02:49:18;6.80;;;4.13;;
33190;SDS011;19554;42.652;23.364;2023-04-15T02:51:47;10.27;;;4.57;;
33190;SDS011;19554;42.652;23.364;2023-04-15T02:54:23;9.88;;;4.70;;
33190;SDS011;19554;42.652;23.364;2023-04-15T02:56:48;13.32;;;4.95;;
33190;SDS011;19554;42.652;23.364;2023-04-15T02:59:14;8.48;;;4.60;;
33190;SDS011;19554;42.652;23.364;2023-04-15T03:01:40;5.68;;;3.88;;
33190;SDS011;19554;42.652;23.364;2023-04-15T03:04:05;11.25;;;4.72;;
33190;SDS011;19554;42.652;23.364;2023-04-15T03:06:34;7.30;;;3.60;;
33190;SDS011;19554;42.652;23.364;2023-04-15T03:08:59;9.25;;;3.75;;
33190;SDS011;19554;42.652;23.364;2023-04-15T03:11:26;5.72;;;4.22;;
33190;SDS011;19554;42.652;23.364;2023-04-15T03:13:53;7.22;;;4.18;;
33190;SDS011;19554;42.652;23.364;2023-04-15T03:16:19;6.38;;;3.90;;
33190;SDS011;19554;42.652;23.364;2023-04-15T03:18:45;9.48;;;4.95;;
33190;SDS011;19554;42.652;23.364;2023-04-15T03:21:10;7.28;;;4.55;;
33190;SDS011;19554;42.652;23.364;2023-04-15T03:23:35;7.20;;;4.45;;
33190;SDS011;19554;42.652;23.364;2023-04-15T03:26:01;14.80;;;4.95;;
33190;SDS011;19554;42.652;23.364;2023-04-15T03:28:27;8.48;;;4.70;;
33190;SDS011;19554;42.652;23.364;2023-04-15T03:30:53;11.15;;;5.90;;
33190;SDS011;19554;42.652;23.364;2023-04-15T03:33:19;9.00;;;4.85;;
33190;SDS011;19554;42.652;23.364;2023-04-15T03:35:44;8.18;;;5.55;;
33190;SDS011;19554;42.652;23.364;2023-04-15T03:38:09;10.93;;;5.20;;
33190;SDS011;19554;42.652;23.364;2023-04-15T03:40:35;8.20;;;4.95;;
33190;SDS011;19554;42.652;23.364;2023-04-15T03:43:00;10.30;;;5.22;;
33190;SDS011;19554;42.652;23.364;2023-04-15T03:45:26;9.63;;;4.95;;
33190;SDS011;19554;42.652;23.364;2023-04-15T03:47:51;7.95;;;5.10;;
33190;SDS011;19554;42.652;23.364;2023-04-15T03:50:16;10.10;;;4.78;;
33190;SDS011;19554;42.652;23.364;2023-04-15T03:52:43;7.15;;;4.47;;
33190;SDS011;19554;42.652;23.364;2023-04-15T03:55:08;9.10;;;4.72;;
33190;SDS011;19554;42.652;23.364;2023-04-15T03:57:34;8.45;;;5.25;;
33190;SDS011;19554;42.652;23.364;2023-04-15T04:00:03;7.25;;;4.45;;
33190;SDS011;19554;42.652;23.364;2023-04-15T04:02:30;7.20;;;4.38;;
33190;SDS011;19554;42.652;23.364;2023-04-15T04:04:55;6.10;;;4.35;;
33190;SDS011;19554;42.652;23.364;2023-04-15T04:07:21;6.78;;;4.40;;
33190;SDS011;19554;42.652;23.364;2023-04-15T04:09:47;8.48;;;4.10;;
33190;SDS011;19554;42.652;23.364;2023-04-15T04:12:13;8.55;;;4.47;;
33190;SDS011;19554;42.652;23.364;2023-04-15T04:14:38;6.10;;;4.30;;
33190;SDS011;19554;42.652;23.364;2023-04-15T04:17:04;6.50;;;4.30;;
33190;SDS011;19554;42.652;23.364;2023-04-15T04:19:30;9.13;;;4.65;;
33190;SDS011;19554;42.652;23.364;2023-04-15T04:21:55;10.15;;;4.50;;
33190;SDS011;19554;42.652;23.364;2023-04-15T04:24:20;8.85;;;4.45;;
33190;SDS011;19554;42.652;23.364;2023-04-15T04:26:46;6.05;;;4.43;;
33190;SDS011;19554;42.652;23.364;2023-04-15T04:29:11;8.13;;;4.00;;
33190;SDS011;19554;42.652;23.364;2023-04-15T04:31:37;8.07;;;4.47;;
33190;SDS011;19554;42.652;23.364;2023-04-15T04:34:02;9.75;;;4.43;;
33190;SDS011;19554;42.652;23.364;2023-04-15T04:36:28;6.03;;;4.07;;
33190;SDS011;19554;42.652;23.364;2023-04-15T04:38:53;6.85;;;5.05;;
33190;SDS011;19554;42.652;23.364;2023-04-15T04:41:18;10.43;;;5.25;;
33190;SDS011;19554;42.652;23.364;2023-04-15T04:43:44;7.68;;;4.78;;
33190;SDS011;19554;42.652;23.364;2023-04-15T04:46:09;10.02;;;5.68;;
33190;SDS011;19554;42.652;23.364;2023-04-15T04:48:36;6.10;;;4.40;;
33190;SDS011;19554;42.652;23.364;2023-04-15T04:51:01;9.30;;;5.65;;
33190;SDS011;19554;42.652;23.364;2023-04-15T04:53:27;11.55;;;5.85;;
33190;SDS011;19554;42.652;23.364;2023-04-15T04:55:52;11.30;;;6.03;;
33190;SDS011;19554;42.652;23.364;2023-04-15T04:58:17;10.82;;;6.20;;
33190;SDS011;19554;42.652;23.364;2023-04-15T05:00:43;12.50;;;7.25;;
33190;SDS011;19554;42.652;23.364;2023-04-15T05:03:08;9.75;;;6.38;;
33190;SDS011;19554;42.652;23.364;2023-04-15T05:05:34;14.50;;;6.43;;
33190;SDS011;19554;42.652;23.364;2023-04-15T05:08:02;15.52;;;7.68;;
33190;SDS011;19554;42.652;23.364;2023-04-15T05:10:27;14.73;;;8.63;;
33190;SDS011;19554;42.652;23.364;2023-04-15T05:12:52;12.38;;;7.88;;
33190;SDS011;19554;42.652;23.364;2023-04-15T05:15:18;11.27;;;7.00;;
33190;SDS011;19554;42.652;23.364;2023-04-15T05:17:43;13.40;;;7.72;;
33190;SDS011;19554;42.652;23.364;2023-04-15T05:20:09;14.00;;;7.82;;
33190;SDS011;19554;42.652;23.364;2023-04-15T05:22:35;12.18;;;7.80;;
33190;SDS011;19554;42.652;23.364;2023-04-15T05:25:01;19.13;;;6.38;;
33190;SDS011;19554;42.652;23.364;2023-04-15T05:27:26;9.02;;;5.38;;
33190;SDS011;19554;42.652;23.364;2023-04-15T05:29:52;14.07;;;6.18;;
33190;SDS011;19554;42.652;23.364;2023-04-15T05:32:17;12.45;;;6.57;;
33190;SDS011;19554;42.652;23.364;2023-04-15T05:34:42;9.88;;;5.57;;
33190;SDS011;19554;42.652;23.364;2023-04-15T05:37:08;10.63;;;6.38;;
33190;SDS011;19554;42.652;23.364;2023-04-15T05:39:33;7.55;;;4.95;;
33190;SDS011;19554;42.652;23.364;2023-04-15T05:41:58;12.02;;;4.78;;
33190;SDS011;19554;42.652;23.364;2023-04-15T05:44:24;9.55;;;4.55;;
33190;SDS011;19554;42.652;23.364;2023-04-15T05:46:50;8.82;;;4.57;;
33190;SDS011;19554;42.652;23.364;2023-04-15T05:49:16;7.72;;;5.15;;
33190;SDS011;19554;42.652;23.364;2023-04-15T05:51:41;10.85;;;5.70;;
33190;SDS011;19554;42.652;23.364;2023-04-15T05:54:06;11.32;;;6.00;;
33190;SDS011;19554;42.652;23.364;2023-04-15T05:56:32;10.77;;;5.97;;
33190;SDS011;19554;42.652;23.364;2023-04-15T05:58:57;10.48;;;5.75;;
33190;SDS011;19554;42.652;23.364;2023-04-15T06:01:23;10.35;;;5.97;;
33190;SDS011;19554;42.652;23.364;2023-04-15T06:03:49;8.55;;;5.50;;
33190;SDS011;19554;42.652;23.364;2023-04-15T06:06:15;11.95;;;6.30;;
33190;SDS011;19554;42.652;23.364;2023-04-15T06:08:40;12.27;;;5.88;;
33190;SDS011;19554;42.652;23.364;2023-04-15T06:11:05;11.95;;;5.57;;
33190;SDS011;19554;42.652;23.364;2023-04-15T06:13:31;10.88;;;5.97;;
33190;SDS011;19554;42.652;23.364;2023-04-15T06:15:57;8.13;;;4.53;;
33190;SDS011;19554;42.652;23.364;2023-04-15T06:18:22;8.75;;;3.92;;
33190;SDS011;19554;42.652;23.364;2023-04-15T06:20:47;12.20;;;3.67;;
33190;SDS011;19554;42.652;23.364;2023-04-15T06:23:13;5.47;;;3.28;;
33190;SDS011;19554;42.652;23.364;2023-04-15T06:25:38;6.03;;;3.55;;
33190;SDS011;19554;42.652;23.364;2023-04-15T06:28:03;10.73;;;3.80;;
33190;SDS011;19554;42.652;23.364;2023-04-15T06:30:29;9.80;;;3.55;;
33190;SDS011;19554;42.652;23.364;2023-04-15T06:32:54;8.13;;;4.30;;
33190;SDS011;19554;42.652;23.364;2023-04-15T06:35:20;10.52;;;3.53;;
33190;SDS011;19554;42.652;23.364;2023-04-15T06:37:46;5.53;;;3.55;;
33190;SDS011;19554;42.652;23.364;2023-04-15T06:40:11;11.18;;;4.05;;
33190;SDS011;19554;42.652;23.364;2023-04-15T06:42:37;9.80;;;4.18;;
33190;SDS011;19554;42.652;23.364;2023-04-15T06:45:02;11.85;;;4.30;;
33190;SDS011;19554;42.652;23.364;2023-04-15T06:47:28;10.70;;;3.90;;
33190;SDS011;19554;42.652;23.364;2023-04-15T06:49:53;8.52;;;4.47;;
33190;SDS011;19554;42.652;23.364;2023-04-15T06:52:19;10.80;;;5.63;;
33190;SDS011;19554;42.652;23.364;2023-04-15T06:54:44;8.32;;;5.03;;
33190;SDS011;19554;42.652;23.364;2023-04-15T06:57:09;12.52;;;4.20;;
33190;SDS011;19554;42.652;23.364;2023-04-15T06:59:35;11.70;;;3.92;;
33190;SDS011;19554;42.652;23.364;2023-04-15T07:02:00;11.23;;;4.35;;
33190;SDS011;19554;42.652;23.364;2023-04-15T07:04:26;7.32;;;3.90;;
33190;SDS011;19554;42.652;23.364;2023-04-15T07:06:54;7.90;;;4.38;;
33190;SDS011;19554;42.652;23.364;2023-04-15T07:09:20;9.88;;;4.05;;
33190;SDS011;19554;42.652;23.364;2023-04-15T07:11:46;8.73;;;4.88;;
33190;SDS011;19554;42.652;23.364;2023-04-15T07:14:12;12.43;;;4.57;;
33190;SDS011;19554;42.652;23.364;2023-04-15T07:16:37;8.60;;;3.83;;
33190;SDS011;19554;42.652;23.364;2023-04-15T07:19:02;7.65;;;3.92;;
33190;SDS011;19554;42.652;23.364;2023-04-15T07:21:28;6.63;;;3.75;;
33190;SDS011;19554;42.652;23.364;2023-04-15T07:23:53;10.65;;;4.22;;
33190;SDS011;19554;42.652;23.364;2023-04-15T07:26:19;9.48;;;4.18;;
33190;SDS011;19554;42.652;23.364;2023-04-15T07:28:44;10.55;;;4.00;;
33190;SDS011;19554;42.652;23.364;2023-04-15T07:31:11;7.28;;;3.88;;
33190;SDS011;19554;42.652;23.364;2023-04-15T07:33:36;9.98;;;4.57;;
33190;SDS011;19554;42.652;23.364;2023-04-15T07:36:01;10.23;;;4.03;;
33190;SDS011;19554;42.652;23.364;2023-04-15T07:38:27;7.20;;;4.00;;
33190;SDS011;19554;42.652;23.364;2023-04-15T07:40:52;12.02;;;4.63;;
33190;SDS011;19554;42.652;23.364;2023-04-15T07:43:18;6.45;;;3.50;;
33190;SDS011;19554;42.652;23.364;2023-04-15T07:45:45;7.32;;;3.85;;
33190;SDS011;19554;42.652;23.364;2023-04-15T07:48:10;6.20;;;3.17;;
33190;SDS011;19554;42.652;23.364;2023-04-15T07:50:36;7.38;;;4.07;;
33190;SDS011;19554;42.652;23.364;2023-04-15T07:53:01;6.18;;;3.70;;
33190;SDS011;19554;42.652;23.364;2023-04-15T07:55:26;9.07;;;3.95;;
33190;SDS011;19554;42.652;23.364;2023-04-15T07:57:52;9.55;;;3.72;;
33190;SDS011;19554;42.652;23.364;2023-04-15T08:00:17;7.18;;;3.60;;
33190;SDS011;19554;42.652;23.364;2023-04-15T08:02:43;8.15;;;4.15;;
33190;SDS011;19554;42.652;23.364;2023-04-15T08:05:09;8.55;;;3.50;;
33190;SDS011;19554;42.652;23.364;2023-04-15T08:07:35;5.20;;;3.08;;
33190;SDS011;19554;42.652;23.364;2023-04-15T08:10:02;5.50;;;3.40;;
33190;SDS011;19554;42.652;23.364;2023-04-15T08:12:28;5.20;;;3.20;;
33190;SDS011;19554;42.652;23.364;2023-04-15T08:14:53;9.25;;;3.47;;
33190;SDS011;19554;42.652;23.364;2023-04-15T08:17:19;8.23;;;3.35;;
33190;SDS011;19554;42.652;23.364;2023-04-15T08:19:44;6.93;;;3.40;;
33190;SDS011;19554;42.652;23.364;2023-04-15T08:22:12;11.48;;;3.33;;
33190;SDS011;19554;42.652;23.364;2023-04-15T08:24:37;11.43;;;3.53;;
33190;SDS011;19554;42.652;23.364;2023-04-15T08:27:03;7.97;;;3.60;;
33190;SDS011;19554;42.652;23.364;2023-04-15T08:29:29;7.80;;;3.42;;
33190;SDS011;19554;42.652;23.364;2023-04-15T08:31:55;9.65;;;3.65;;
33190;SDS011;19554;42.652;23.364;2023-04-15T08:34:21;5.35;;;2.70;;
33190;SDS011;19554;42.652;23.364;2023-04-15T08:36:47;6.40;;;1.90;;
33190;SDS011;19554;42.652;23.364;2023-04-15T08:39:13;5.35;;;2.65;;
33190;SDS011;19554;42.652;23.364;2023-04-15T08:41:45;9.98;;;2.92;;
33190;SDS011;19554;42.652;23.364;2023-04-15T08:44:23;6.50;;;2.50;;
33190;SDS011;19554;42.652;23.364;2023-04-15T08:46:50;4.72;;;2.47;;
33190;SDS011;19554;42.652;23.364;2023-04-15T08:49:17;6.97;;;2.60;;
33190;SDS011;19554;42.652;23.364;2023-04-15T08:51:44;4.32;;;2.42;;
33190;SDS011;19554;42.652;23.364;2023-04-15T08:54:09;6.13;;;2.75;;
33190;SDS011;19554;42.652;23.364;2023-04-15T08:56:35;4.90;;;2.20;;
33190;SDS011;19554;42.652;23.364;2023-04-15T08:59:03;6.03;;;2.40;;
33190;SDS011;19554;42.652;23.364;2023-04-15T09:01:29;7.63;;;2.60;;
33190;SDS011;19554;42.652;23.364;2023-04-15T09:03:56;5.57;;;2.38;;
33190;SDS011;19554;42.652;23.364;2023-04-15T09:06:23;5.93;;;1.92;;
33190;SDS011;19554;42.652;23.364;2023-04-15T09:08:49;5.78;;;1.88;;
33190;SDS011;19554;42.652;23.364;2023-04-15T09:11:16;5.00;;;1.70;;
33190;SDS011;19554;42.652;23.364;2023-04-15T09:13:42;5.10;;;2.10;;
33190;SDS011;19554;42.652;23.364;2023-04-15T09:16:07;3.53;;;2.25;;
33190;SDS011;19554;42.652;23.364;2023-04-15T09:18:34;3.72;;;1.73;;
33190;SDS011;19554;42.652;23.364;2023-04-15T09:21:07;2.97;;;1.63;;
33190;SDS011;19554;42.652;23.364;2023-04-15T09:23:35;9.20;;;2.28;;
33190;SDS011;19554;42.652;23.364;2023-04-15T09:26:02;4.35;;;2.20;;
33190;SDS011;19554;42.652;23.364;2023-04-15T09:28:28;4.47;;;1.90;;
33190;SDS011;19554;42.652;23.364;2023-04-15T09:31:00;2.38;;;1.65;;
33190;SDS011;19554;42.652;23.364;2023-04-15T09:33:27;5.05;;;2.00;;
33190;SDS011;19554;42.652;23.364;2023-04-15T09:36:00;2.78;;;1.45;;
33190;SDS011;19554;42.652;23.364;2023-04-15T09:38:28;6.75;;;1.80;;
33190;SDS011;19554;42.652;23.364;2023-04-15T09:40:54;3.15;;;1.48;;
33190;SDS011;19554;42.652;23.364;2023-04-15T09:43:21;2.53;;;1.20;;
33190;SDS011;19554;42.652;23.364;2023-04-15T09:45:50;5.05;;;1.70;;
33190;SDS011;19554;42.652;23.364;2023-04-15T09:50:45;3.08;;;1.15;;
33190;SDS011;19554;42.652;23.364;2023-04-15T09:53:16;2.10;;;1.42;;
33190;SDS011;19554;42.652;23.364;2023-04-15T09:58:22;4.70;;;1.60;;
33190;SDS011;19554;42.652;23.364;2023-04-15T10:00:50;2.33;;;1.27;;
33190;SDS011;19554;42.652;23.364;2023-04-15T10:03:20;1.77;;;1.27;;
33190;SDS011;19554;42.652;23.364;2023-04-15T10:06:06;3.35;;;1.35;;
33190;SDS011;19554;42.652;23.364;2023-04-15T10:08:33;5.60;;;1.20;;
33190;SDS011;19554;42.652;23.364;2023-04-15T10:10:59;2.42;;;1.02;;
33190;SDS011;19554;42.652;23.364;2023-04-15T10:13:27;5.03;;;1.48;;
33190;SDS011;19554;42.652;23.364;2023-04-15T10:16:10;2.38;;;1.33;;
33190;SDS011;19554;42.652;23.364;2023-04-15T10:18:40;3.67;;;1.63;;
33190;SDS011;19554;42.652;23.364;2023-04-15T10:21:08;2.40;;;1.23;;
33190;SDS011;19554;42.652;23.364;2023-04-15T10:23:33;2.33;;;1.10;;
33190;SDS011;19554;42.652;23.364;2023-04-15T10:26:00;3.38;;;1.20;;
33190;SDS011;19554;42.652;23.364;2023-04-15T10:28:28;1.75;;;1.10;;
33190;SDS011;19554;42.652;23.364;2023-04-15T10:30:53;2.03;;;0.90;;
33190;SDS011;19554;42.652;23.364;2023-04-15T10:33:20;3.90;;;1.27;;
33190;SDS011;19554;42.652;23.364;2023-04-15T10:35:48;4.63;;;1.40;;
33190;SDS011;19554;42.652;23.364;2023-04-15T10:38:34;2.67;;;1.17;;
33190;SDS011;19554;42.652;23.364;2023-04-15T10:41:17;3.03;;;1.35;;
33190;SDS011;19554;42.652;23.364;2023-04-15T10:43:53;3.08;;;1.50;;
33190;SDS011;19554;42.652;23.364;2023-04-15T10:46:35;2.95;;;1.58;;
33190;SDS011;19554;42.652;23.364;2023-04-15T10:49:06;2.67;;;1.90;;
33190;SDS011;19554;42.652;23.364;2023-04-15T10:51:36;6.78;;;2.47;;
33190;SDS011;19554;42.652;23.364;2023-04-15T10:54:06;4.65;;;1.80;;
33190;SDS011;19554;42.652;23.364;2023-04-15T10:59:28;4.30;;;1.75;;
33190;SDS011;19554;42.652;23.364;2023-04-15T11:02:00;2.10;;;1.35;;
33190;SDS011;19554;42.652;23.364;2023-04-15T11:04:51;4.53;;;2.38;;
33190;SDS011;19554;42.652;23.364;2023-04-15T11:10:00;5.03;;;1.45;;
33190;SDS011;19554;42.652;23.364;2023-04-15T11:12:34;4.80;;;1.70;;
33190;SDS011;19554;42.652;23.364;2023-04-15T11:20:34;2.85;;;1.80;;
33190;SDS011;19554;42.652;23.364;2023-04-15T11:23:00;3.08;;;1.38;;
33190;SDS011;19554;42.652;23.364;2023-04-15T11:25:30;4.25;;;1.60;;
33190;SDS011;19554;42.652;23.364;2023-04-15T11:27:57;12.50;;;2.00;;
33190;SDS011;19554;42.652;23.364;2023-04-15T11:30:25;2.83;;;1.35;;
33190;SDS011;19554;42.652;23.364;2023-04-15T11:32:52;4.15;;;1.70;;
33190;SDS011;19554;42.652;23.364;2023-04-15T11:35:19;6.80;;;1.90;;
33190;SDS011;19554;42.652;23.364;2023-04-15T11:37:46;5.40;;;1.60;;
33190;SDS011;19554;42.652;23.364;2023-04-15T11:40:13;1.75;;;1.27;;
33190;SDS011;19554;42.652;23.364;2023-04-15T11:42:41;3.00;;;1.65;;
33190;SDS011;19554;42.652;23.364;2023-04-15T11:45:11;4.28;;;1.50;;
33190;SDS011;19554;42.652;23.364;2023-04-15T11:47:38;2.85;;;1.83;;
33190;SDS011;19554;42.652;23.364;2023-04-15T11:50:20;2.85;;;1.42;;
33190;SDS011;19554;42.652;23.364;2023-04-15T11:55:19;2.83;;;1.48;;
33190;SDS011;19554;42.652;23.364;2023-04-15T11:57:44;4.53;;;1.40;;
33190;SDS011;19554;42.652;23.364;2023-04-15T12:00:10;4.00;;;1.63;;
33190;SDS011;19554;42.652;23.364;2023-04-15T12:02:36;4.78;;;1.75;;
33190;SDS011;19554;42.652;23.364;2023-04-15T12:05:02;2.13;;;0.95;;
33190;SDS011;19554;42.652;23.364;2023-04-15T12:07:29;2.70;;;0.90;;
33190;SDS011;19554;42.652;23.364;2023-04-15T12:09:54;4.90;;;1.42;;
33190;SDS011;19554;42.652;23.364;2023-04-15T12:12:21;3.40;;;1.58;;
33190;SDS011;19554;42.652;23.364;2023-04-15T12:14:46;2.85;;;1.70;;
33190;SDS011;19554;42.652;23.364;2023-04-15T12:17:15;3.42;;;1.70;;
33190;SDS011;19554;42.652;23.364;2023-04-15T12:19:41;3.03;;;1.52;;
33190;SDS011;19554;42.652;23.364;2023-04-15T12:22:13;5.22;;;1.33;;
33190;SDS011;19554;42.652;23.364;2023-04-15T12:24:40;1.77;;;0.88;;
33190;SDS011;19554;42.652;23.364;2023-04-15T12:27:14;5.65;;;0.93;;
33190;SDS011;19554;42.652;23.364;2023-04-15T12:29:40;1.20;;;0.95;;
33190;SDS011;19554;42.652;23.364;2023-04-15T12:32:10;1.85;;;1.10;;
33190;SDS011;19554;42.652;23.364;2023-04-15T12:34:51;2.38;;;1.50;;
33190;SDS011;19554;42.652;23.364;2023-04-15T12:37:18;2.95;;;1.02;;
33190;SDS011;19554;42.652;23.364;2023-04-15T12:39:44;3.38;;;1.20;;
33190;SDS011;19554;42.652;23.364;2023-04-15T12:42:13;1.15;;;0.70;;
33190;SDS011;19554;42.652;23.364;2023-04-15T12:44:40;2.17;;;0.82;;
33190;SDS011;19554;42.652;23.364;2023-04-15T12:47:07;2.00;;;1.10;;
33190;SDS011;19554;42.652;23.364;2023-04-15T12:49:34;5.93;;;1.85;;
33190;SDS011;19554;42.652;23.364;2023-04-15T12:52:00;1.50;;;0.80;;
33190;SDS011;19554;42.652;23.364;2023-04-15T12:54:27;2.28;;;1.13;;
33190;SDS011;19554;42.652;23.364;2023-04-15T12:56:53;3.80;;;0.88;;
33190;SDS011;19554;42.652;23.364;2023-04-15T12:59:19;2.42;;;0.80;;
33190;SDS011;19554;42.652;23.364;2023-04-15T13:01:46;5.50;;;0.93;;
33190;SDS011;19554;42.652;23.364;2023-04-15T13:04:12;1.80;;;0.85;;
33190;SDS011;19554;42.652;23.364;2023-04-15T13:06:38;2.92;;;1.80;;
33190;SDS011;19554;42.652;23.364;2023-04-15T13:09:04;4.47;;;1.42;;
33190;SDS011;19554;42.652;23.364;2023-04-15T13:11:29;4.47;;;1.42;;
33190;SDS011;19554;42.652;23.364;2023-04-15T13:13:57;2.60;;;0.82;;
33190;SDS011;19554;42.652;23.364;2023-04-15T13:16:24;2.40;;;0.93;;
33190;SDS011;19554;42.652;23.364;2023-04-15T13:18:50;2.70;;;1.00;;
33190;SDS011;19554;42.652;23.364;2023-04-15T13:21:15;3.67;;;0.95;;
33190;SDS011;19554;42.652;23.364;2023-04-15T13:23:42;1.42;;;0.63;;
33190;SDS011;19554;42.652;23.364;2023-04-15T13:26:07;1.75;;;0.90;;
33190;SDS011;19554;42.652;23.364;2023-04-15T13:28:33;2.78;;;1.00;;
33190;SDS011;19554;42.652;23.364;2023-04-15T13:30:58;3.95;;;1.00;;
33190;SDS011;19554;42.652;23.364;2023-04-15T13:33:24;4.28;;;0.93;;
33190;SDS011;19554;42.652;23.364;2023-04-15T13:35:50;3.22;;;1.00;;
33190;SDS011;19554;42.652;23.364;2023-04-15T13:38:15;3.75;;;0.70;;
33190;SDS011;19554;42.652;23.364;2023-04-15T13:40:41;4.43;;;1.00;;
33190;SDS011;19554;42.652;23.364;2023-04-15T13:43:06;1.58;;;1.00;;
33190;SDS011;19554;42.652;23.364;2023-04-15T13:45:32;5.70;;;0.90;;
33190;SDS011;19554;42.652;23.364;2023-04-15T13:47:57;1.70;;;0.60;;
33190;SDS011;19554;42.652;23.364;2023-04-15T13:50:23;0.80;;;0.65;;
33190;SDS011;19554;42.652;23.364;2023-04-15T13:52:49;3.58;;;1.25;;
33190;SDS011;19554;42.652;23.364;2023-04-15T13:55:14;3.15;;;1.05;;
33190;SDS011;19554;42.652;23.364;2023-04-15T13:57:39;5.30;;;1.65;;
33190;SDS011;19554;42.652;23.364;2023-04-15T14:00:05;4.43;;;0.95;;
33190;SDS011;19554;42.652;23.364;2023-04-15T14:02:31;1.98;;;0.70;;
33190;SDS011;19554;42.652;23.364;2023-04-15T14:04:57;1.90;;;1.27;;
33190;SDS011;19554;42.652;23.364;2023-04-15T14:07:22;2.42;;;1.38;;
33190;SDS011;19554;42.652;23.364;2023-04-15T14:09:47;2.00;;;0.80;;
33190;SDS011;19554;42.652;23.364;2023-04-15T14:12:13;1.83;;;1.15;;
33190;SDS011;19554;42.652;23.364;2023-04-15T14:14:39;2.15;;;0.80;;
33190;SDS011;19554;42.652;23.364;2023-04-15T14:17:05;3.22;;;0.80;;
33190;SDS011;19554;42.652;23.364;2023-04-15T14:19:30;3.25;;;0.90;;
33190;SDS011;19554;42.652;23.364;2023-04-15T14:21:56;3.38;;;0.75;;
33190;SDS011;19554;42.652;23.364;2023-04-15T14:24:22;1.92;;;1.17;;
33190;SDS011;19554;42.652;23.364;2023-04-15T14:26:47;2.45;;;0.90;;
33190;SDS011;19554;42.652;23.364;2023-04-15T14:29:13;2.97;;;1.10;;
33190;SDS011;19554;42.652;23.364;2023-04-15T14:31:38;1.95;;;1.10;;
33190;SDS011;19554;42.652;23.364;2023-04-15T14:34:03;4.72;;;1.10;;
33190;SDS011;19554;42.652;23.364;2023-04-15T14:36:29;2.63;;;0.90;;
33190;SDS011;19554;42.652;23.364;2023-04-15T14:38:55;2.08;;;1.10;;
33190;SDS011;19554;42.652;23.364;2023-04-15T14:41:21;3.22;;;1.05;;
33190;SDS011;19554;42.652;23.364;2023-04-15T14:43:47;1.80;;;1.10;;
33190;SDS011;19554;42.652;23.364;2023-04-15T14:46:12;3.30;;;1.55;;